Latest Coastal Weather Observations for Flinders Island Airport

IDV60701

Issued at 1:05 pm EST Friday 18 April 2014 (issued every 10 minutes, with the page automatically refreshed every 10 minutes)

About coastal observations | Map of coastal stations | Coastal observations for VIC | Marine services | Other Formats
Station Details ID: 099005 Name: FLINDERS ISLAND AIRPORT Lat: -40.09 Lon: 148.00 Height: 9.0 m
Data from the previous 72 hours. | See also: Recent months at Flinders Island Airport
Date/Time
EST
Temp

°C
Wind Pressure Rain
since 9am
mm
Weather Cloud Vis
km
Sea
Height
m
Swell
Dir
 
Speed
knots
Gust
knots
hPa Trend Height
m
Period
s
Dir
18/01:00pm 14.2 SW 14 18 1009.5 - 7.0 - Partly cloudy 10 - - - -
18/12:40pm 13.7 SW 18 24 1009.6 - 6.6 - Partly cloudy 10 - - - -
18/12:36pm 13.6 SW 19 25 1009.7 - 6.6 - Partly cloudy 9 - - - -
18/12:30pm 13.6 SW 21 30 1009.7 - 6.6 - Partly cloudy 5 - - - -
18/12:26pm 13.3 SW 23 30 1009.7 - 6.4 - Partly cloudy 4 - - - -
18/12:05pm 13.6 WSW 27 38 1010.3 - 0.6 - Partly cloudy 5 - - - -
18/12:04pm 13.6 WSW 26 31 1010.2 - 0.4 - Partly cloudy 5 - - - -
18/12:00pm 16.6 WNW 19 29 1009.6 - 0.2 - Cloudy 7 - - - -
18/11:30am 17.6 WNW 18 24 1009.4 - 0.0 - Partly cloudy 10 - - - -
18/11:15am 18.0 WNW 16 22 1009.7 - 0.0 - Partly cloudy 10 - - - -
18/11:00am 18.2 WNW 16 20 1009.8 - 0.0 - Partly cloudy 10 - - - -
18/10:30am 18.9 WNW 17 22 1010.3 - 0.0 - Partly cloudy 10 - - - -
18/10:00am 18.4 WNW 15 22 1010.6 - 0.0 - Partly cloudy 10 - - - -
18/09:30am 18.9 NW 13 18 1010.7 - 0.0 - - 10 - - - -
18/09:00am 18.1 NNW 9 15 1011.2 - 0.2 - - 10 - - - -
18/08:30am 17.6 NNW 9 15 1011.6 - 0.2 - Partly cloudy 10 - - - -
18/08:00am 17.2 NNW 8 11 1012.0 - 0.2 - Cloudy 10 - - - -
18/07:30am 16.7 N 9 14 1012.3 - 0.2 - Partly cloudy 10 - - - -
18/07:00am 16.4 N 9 13 1012.1 - 0.2 - Partly cloudy 10 - - - -
18/06:30am 16.0 N 7 9 1012.3 - 0.2 - Partly cloudy 10 - - - -
18/06:00am 15.4 N 7 11 1012.5 - 0.2 - Partly cloudy 10 - - - -
18/05:30am 14.9 CALM 0 3 1012.8 - 0.2 - Partly cloudy 10 - - - -
18/05:00am 11.7 NNE 3 5 1013.2 - 0.2 - Partly cloudy 10 - - - -
18/04:30am 11.0 NE 5 5 1013.7 - 0.2 - Partly cloudy 10 - - - -
18/04:00am 12.1 NE 4 5 1014.0 - 0.2 - Partly cloudy 10 - - - -
18/03:30am 12.3 ENE 4 5 1014.2 - 0.2 - - 10 - - - -
18/03:00am 11.5 ENE 5 7 1014.6 - 0.0 - - 10 - - - -
18/02:30am 11.4 NE 7 8 1015.1 - 0.0 - - 10 - - - -
18/02:00am 12.5 NNE 4 5 1015.6 - 0.0 - - 10 - - - -
18/01:30am 10.6 E 3 5 1015.9 - 0.0 - - 10 - - - -
18/01:00am 9.2 ENE 8 9 1016.0 - 0.0 - - 10 - - - -
18/12:30am 9.5 ENE 7 8 1016.8 - 0.0 - - 10 - - - -
18/12:00am 9.3 ENE 6 7 1017.2 - 0.0 - - 10 - - - -
 
Date/Time
EST
Temp

°C
Wind Pressure Rain
since 9am
mm
Weather Cloud Vis
km
Sea
Height
m
Swell
Dir
 
Speed
knots
Gust
knots
hPa Trend Height
m
Period
s
Dir
17/11:30pm 9.0 ENE 6 6 1017.6 - 0.0 - - 10 - - - -
17/11:00pm 8.9 ENE 5 6 1018.0 - 0.0 - - 10 - - - -
17/10:30pm 9.9 ENE 5 6 1018.4 - 0.0 - - 10 - - - -
17/10:00pm 9.6 ENE 6 8 1018.6 - 0.0 - - 10 - - - -
17/09:30pm 9.7 ENE 7 8 1018.8 - 0.0 - - 10 - - - -
17/09:00pm 10.2 ENE 6 7 1018.8 - 0.0 - - 10 - - - -
17/08:30pm 10.6 ENE 7 8 1018.9 - 0.0 - - 10 - - - -
17/08:00pm 11.1 ENE 7 8 1019.0 - 0.0 - - 10 - - - -
17/07:30pm 11.4 NE 5 5 1018.9 - 0.0 - - 10 - - - -
17/07:00pm 14.0 N 5 6 1018.9 - 0.0 - - 10 - - - -
17/06:30pm 14.4 N 5 6 1018.9 - 0.0 - Partly cloudy 10 - - - -
17/06:00pm 16.1 NE 5 6 1018.8 - 0.0 - Cloudy 10 - - - -
17/05:30pm 17.1 CALM 0 0 1019.0 - 0.0 - Partly cloudy 10 - - - -
17/05:00pm 17.3 CALM 0 0 1018.9 - 0.0 - Cloudy 10 - - - -
17/04:30pm 17.4 WSW 3 5 1019.0 - 0.0 - Partly cloudy 10 - - - -
17/04:00pm 17.6 WSW 4 5 1019.1 - 0.0 - Partly cloudy 10 - - - -
17/03:30pm 17.6 WNW 5 7 1019.4 - 0.0 - Partly cloudy 10 - - - -
17/03:00pm 17.5 W 5 6 1019.5 - 0.0 - Cloudy 10 - - - -
17/02:30pm 17.5 WSW 6 9 1019.7 - 0.0 - Partly cloudy 10 - - - -
17/02:00pm 18.0 WSW 8 9 1019.7 - 0.0 - Partly cloudy 10 - - - -
17/01:30pm 19.1 N 8 11 1019.7 - 0.0 - Partly cloudy 10 - - - -
17/01:00pm 20.1 NE 6 10 1019.9 - 0.0 - Partly cloudy 10 - - - -
17/12:30pm 19.6 NNE 9 12 1020.3 - 0.0 - - 10 - - - -
17/12:00pm 20.3 ENE 8 10 1020.6 - 0.0 - Partly cloudy 10 - - - -
17/11:30am 19.3 NE 9 13 1020.9 - 0.0 - Partly cloudy 10 - - - -
17/11:00am 19.1 NNE 5 9 1021.2 - 0.0 - Partly cloudy 10 - - - -
17/10:30am 18.6 NNE 5 8 1021.3 - 0.0 - Partly cloudy 10 - - - -
17/10:00am 18.5 NE 4 8 1021.5 - 0.0 - - 10 - - - -
17/09:30am 17.3 NNE 5 6 1021.6 - 0.0 - - 10 - - - -
17/09:00am 16.6 NE 4 6 1021.5 - 0.2 - - 10 - - - -
17/08:30am 14.3 ENE 4 6 1021.3 - 0.2 - Partly cloudy 10 - - - -
17/08:00am 11.7 ENE 6 7 1021.2 - 0.2 - - 10 - - - -
17/07:30am 10.1 NE 7 8 1021.1 - 0.0 - - 10 - - - -
17/07:00am 6.9 ENE 6 7 1020.8 - 0.0 - - 10 - - - -
17/06:30am 7.9 ENE 7 9 1020.4 - 0.0 - - 10 - - - -
17/06:00am 8.5 ENE 7 8 1020.6 - 0.0 - Mostly clear 10 - - - -
17/05:30am 8.2 ENE 6 8 1020.6 - 0.0 - Cloudy 10 - - - -
17/05:00am 7.6 ENE 6 8 1020.5 - 0.0 - - 10 - - - -
17/04:30am 7.0 ENE 5 6 1020.3 - 0.0 - - 10 - - - -
17/04:00am 8.3 NE 5 5 1020.0 - 0.0 - - 10 - - - -
17/03:30am 8.9 NE 7 8 1019.8 - 0.0 - - 10 - - - -
17/03:00am 8.1 NE 6 7 1019.9 - 0.0 - - 10 - - - -
17/02:30am 8.6 ENE 5 6 1020.0 - 0.0 - Partly cloudy 10 - - - -
17/02:00am 9.0 ENE 5 6 1020.3 - 0.0 - Partly cloudy 10 - - - -
17/01:30am 10.2 NE 5 5 1020.4 - 0.0 - Partly cloudy 10 - - - -
17/01:00am 10.3 NE 5 6 1020.6 - 0.0 - Cloudy 10 - - - -
17/12:30am 9.7 NE 4 5 1020.7 - 0.0 - Cloudy 10 - - - -
17/12:00am 8.4 ENE 4 5 1020.5 - 0.0 - - 10 - - - -
 
Date/Time
EST
Temp

°C
Wind Pressure Rain
since 9am
mm
Weather Cloud Vis
km
Sea
Height
m
Swell
Dir
 
Speed
knots
Gust
knots
hPa Trend Height
m
Period
s
Dir
16/11:30pm 9.7 ENE 4 5 1020.7 - 0.0 - Partly cloudy 10 - - - -
16/11:00pm 9.0 NE 5 6 1020.9 - 0.0 - Partly cloudy 10 - - - -
16/10:30pm 9.3 ENE 5 7 1021.0 - 0.0 - - 10 - - - -
16/10:00pm 9.3 ENE 6 7 1020.9 - 0.0 - - 10 - - - -
16/09:30pm 9.3 ENE 5 7 1021.0 - 0.0 - - 10 - - - -
16/09:00pm 9.4 ENE 7 8 1021.1 - 0.0 - - 10 - - - -
16/08:30pm 9.5 ENE 5 6 1021.1 - 0.0 - - 10 - - - -
16/08:00pm 10.2 E 5 6 1021.0 - 0.0 - - 10 - - - -
16/07:30pm 10.8 E 3 4 1020.8 - 0.0 - - 10 - - - -
16/07:00pm 11.7 E 3 4 1020.8 - 0.0 - - 10 - - - -
16/06:30pm 12.8 ENE 5 5 1020.7 - 0.0 - - 10 - - - -
16/06:00pm 14.8 NNE 5 6 1020.4 - 0.0 - Partly cloudy 10 - - - -
16/05:30pm 15.8 NNE 5 7 1020.2 - 0.0 - Partly cloudy 10 - - - -
16/05:00pm 16.8 ENE 7 8 1019.9 - 0.0 - Partly cloudy 10 - - - -
16/04:30pm 17.5 E 8 11 1019.8 - 0.0 - Cloudy 10 - - - -
16/04:00pm 18.7 NE 6 9 1019.9 - 0.0 - Partly cloudy 10 - - - -
16/03:30pm 18.3 NE 7 10 1019.9 - 0.0 - Partly cloudy 10 - - - -
16/03:00pm 18.5 NNE 6 8 1020.1 - 0.0 - Mostly clear 10 - - - -
16/02:30pm 17.5 NNE 7 9 1020.3 - 0.0 - Partly cloudy 10 - - - -
16/02:19pm 17.1 NNE 6 8 1020.3 - 0.0 - Partly cloudy 10 - - - -
16/02:07pm 17.1 ENE 7 9 1020.3 - 0.0 - Partly cloudy 10 - - - -
16/02:00pm 17.5 NE 5 7 1020.2 - 0.0 - Partly cloudy 10 - - - -
16/01:30pm 17.2 SSW 6 9 1020.2 - 0.0 - Partly cloudy 10 - - - -
16/01:00pm 17.2 SSW 8 10 1020.4 - 0.0 - Partly cloudy 10 - - - -
16/12:30pm 17.8 SSW 7 9 1020.7 - 0.0 - Partly cloudy 10 - - - -
16/12:00pm 17.4 SSW 9 10 1021.2 - 0.0 - Partly cloudy 10 - - - -
16/11:30am 17.1 SSW 7 8 1021.5 - 0.0 - - 10 - - - -
16/11:00am 16.9 SW 7 9 1021.6 - 0.0 - Partly cloudy 10 - - - -
16/10:30am 17.7 WSW 6 7 1021.9 - 0.0 - Partly cloudy 10 - - - -
16/10:00am 17.2 W 5 6 1022.0 - 0.0 - Partly cloudy 10 - - - -
16/09:30am 16.2 CALM 0 0 1022.3 - 0.0 - Partly cloudy 10 - - - -
16/09:00am 15.4 SSE 3 5 1022.6 - 0.0 - Cloudy 10 - - - -
16/08:30am 14.8 NE 2 4 1022.8 - 0.0 - Partly cloudy 10 - - - -
16/08:00am 13.2 NE 4 5 1022.8 - 0.0 - Cloudy 10 - - - -
16/07:30am 11.9 NE 3 4 1022.8 - 0.0 - Cloudy 10 - - - -
16/07:00am 11.9 CALM 0 0 1022.4 - 0.0 - Partly cloudy 10 - - - -
16/06:48am 12.1 CALM 0 3 1022.3 - 0.0 - Partly cloudy 10 - - - -
16/06:34am 12.5 E 4 4 1022.3 - 0.0 - Partly cloudy 10 - - - -
16/06:30am 12.3 E 4 4 1022.4 - 0.0 - Partly cloudy 10 - - - -
16/06:18am 11.9 ENE 5 6 1022.3 - 0.0 - Partly cloudy 5 - - - -
16/06:12am 11.8 ENE 4 5 1022.3 - 0.0 - Partly cloudy 10 - - - -
16/06:00am 11.7 ENE 5 6 1022.3 - 0.0 - Cloudy 10 - - - -
16/05:30am 12.7 ENE 1 4 1022.1 - 0.0 - Cloudy 10 - - - -
16/05:00am 13.0 E 1 5 1022.3 - 0.0 - Partly cloudy 10 - - - -
16/04:30am 13.2 ENE 5 7 1022.3 - 0.0 - Partly cloudy 10 - - - -
16/04:00am 11.9 ENE 5 6 1022.2 - 0.0 - Partly cloudy 10 - - - -
16/03:30am 11.1 NE 5 6 1022.3 - 0.0 - Partly cloudy 10 - - - -
16/03:00am 11.8 NE 5 5 1022.5 - 0.0 - Mostly clear 10 - - - -
16/02:30am 13.3 SE 3 5 1022.7 - 0.0 - Partly cloudy 10 - - - -
16/02:00am 13.0 E 4 5 1023.2 - 0.0 - Partly cloudy 10 - - - -
16/01:30am 11.4 E 5 7 1023.5 - 0.0 - Partly cloudy 10 - - - -
16/01:00am 12.1 ENE 5 6 1023.7 - 0.0 - Partly cloudy 10 - - - -
16/12:30am 10.4 E 4 6 1023.8 - 0.0 - Cloudy 10 - - - -
16/12:00am 9.8 E 4 7 1023.9 - 0.0 - Partly cloudy 10 - - - -
 
Date/Time
EST
Temp

°C
Wind Pressure Rain
since 9am
mm
Weather Cloud Vis
km
Sea
Height
m
Swell
Dir
 
Speed
knots
Gust
knots
hPa Trend Height
m
Period
s
Dir
15/11:30pm 9.1 ENE 1 4 1024.1 - 0.0 - - 10 - - - -
15/11:00pm 10.8 ENE 5 6 1024.5 - 0.0 - Partly cloudy 10 - - - -
15/10:30pm 11.3 ENE 5 6 1024.7 - 0.0 - Partly cloudy 10 - - - -
15/10:00pm 10.1 ESE 5 7 1024.9 - 0.0 - Partly cloudy 10 - - - -
15/09:30pm 9.5 E 5 6 1024.9 - 0.0 - - 10 - - - -
15/09:00pm 8.8 E 6 6 1024.9 - 0.0 - - 10 - - - -
15/08:30pm 8.7 E 6 7 1024.8 - 0.0 - - 10 - - - -
15/08:00pm 10.9 E 5 7 1024.7 - 0.0 - - 10 - - - -
15/07:30pm 11.3 E 5 7 1024.8 - 0.0 - Partly cloudy 10 - - - -
15/07:00pm 12.0 E 4 5 1024.7 - 0.0 - Partly cloudy 10 - - - -
15/06:30pm 12.4 E 4 6 1024.5 - 0.0 - - 10 - - - -
15/06:00pm 13.0 ESE 5 7 1024.1 - 0.0 - - 10 - - - -
15/05:30pm 14.1 ESE 5 8 1023.8 - 0.0 - - 10 - - - -
15/05:00pm 15.5 ESE 6 8 1023.6 - 0.0 - - 10 - - - -
15/04:30pm 15.2 ESE 6 11 1023.6 - 0.0 - Partly cloudy 10 - - - -
15/04:00pm 16.0 ESE 7 12 1023.6 - 0.0 - Partly cloudy 10 - - - -
15/03:30pm 17.0 ESE 9 15 1023.6 - 0.0 - - 10 - - - -
15/03:00pm 17.4 ESE 11 16 1023.5 - 0.0 - - 10 - - - -
15/02:30pm 17.6 E 10 17 1023.4 - 0.0 - - 10 - - - -
15/02:00pm 17.5 ESE 9 15 1023.4 - 0.0 - Partly cloudy 10 - - - -
15/01:30pm 17.4 ESE 9 16 1023.4 - 0.0 - Partly cloudy 10 - - - -

Other Formats:

Comma delimited format used in spreadsheet applications
http://www.bom.gov.au/fwo/IDV60701/IDV60701.94980.axf

JavaScript Object Notation format (JSON) in row-major order
http://www.bom.gov.au/fwo/IDV60701/IDV60701.94980.json